Time;durP1;ratioP1;P1;durP2;ratioP2;P2;SDS_P1;SDS_P2;PMS_P1;PMS_P2;Temp;Humidity;BMP_temperature;BMP_pressure;BME280_temperature;BME280_humidity;BME280_pressure;Samples;Min_cycle;Max_cycle;Signal;HPM_P1;HPM_P2
2021/01/18 00:00:25;;;;;;;1.10;1.10;;;2.30;98.00;;;;;;5073474;28;20472;-66
2021/01/18 00:02:52;;;;;;;1.13;1.10;;;2.30;98.00;;;;;;5072852;28;20449;-66
2021/01/18 00:05:19;;;;;;;1.10;1.10;;;2.40;98.00;;;;;;5073935;28;20459;-64
2021/01/18 00:07:46;;;;;;;1.10;0.90;;;2.40;98.00;;;;;;5074098;28;20467;-65
2021/01/18 00:10:15;;;;;;;1.27;1.20;;;2.50;98.00;;;;;;5071291;28;20868;-65
2021/01/18 00:12:47;;;;;;;1.87;1.77;;;2.60;98.00;;;;;;5074156;28;20456;-65
2021/01/18 00:15:15;;;;;;;17.30;1.93;;;2.60;98.00;;;;;;5071451;28;20484;-65
2021/01/18 00:17:42;;;;;;;1.10;1.00;;;2.50;98.00;;;;;;5074075;28;20460;-64
2021/01/18 00:20:10;;;;;;;1.70;1.53;;;2.50;98.00;;;;;;5071524;28;20517;-65
2021/01/18 00:22:38;;;;;;;2.40;1.70;;;2.60;98.00;;;;;;5074023;28;20467;-65
2021/01/18 00:25:09;;;;;;;1.83;1.47;;;2.60;98.00;;;;;;5071582;28;20448;-66
2021/01/18 00:27:35;;;;;;;3.60;1.73;;;2.50;98.00;;;;;;5073582;28;20464;-65
2021/01/18 00:30:06;;;;;;;1.10;1.00;;;2.50;98.00;;;;;;5071393;28;20455;-66
2021/01/18 00:32:33;;;;;;;1.10;1.00;;;2.40;98.00;;;;;;5073723;28;20468;-66
2021/01/18 00:34:59;;;;;;;1.40;1.20;;;2.60;98.00;;;;;;5071146;28;20586;-67
2021/01/18 00:37:26;;;;;;;1.97;1.60;;;2.60;98.00;;;;;;5073619;28;20819;-66
2021/01/18 00:39:53;;;;;;;1.10;1.00;;;2.70;98.00;;;;;;5071050;28;20456;-65
2021/01/18 00:42:20;;;;;;;1.27;1.20;;;2.60;98.00;;;;;;5073190;28;20471;-65
2021/01/18 00:44:47;;;;;;;1.53;1.50;;;2.50;98.00;;;;;;5071203;28;20464;-65
2021/01/18 00:47:15;;;;;;;1.73;1.73;;;2.50;98.00;;;;;;5073207;28;20467;-65
2021/01/18 00:49:42;;;;;;;3.10;1.97;;;2.60;98.00;;;;;;5070982;28;20498;-65
2021/01/18 00:52:13;;;;;;;1.10;1.00;;;2.60;98.00;;;;;;5071824;28;20824;-66
2021/01/18 00:54:40;;;;;;;1.10;1.00;;;2.60;98.00;;;;;;5070381;28;20460;-65
2021/01/18 00:57:07;;;;;;;1.10;1.00;;;2.60;98.00;;;;;;5073079;28;20517;-65
2021/01/18 00:59:34;;;;;;;1.60;1.47;;;2.60;98.00;;;;;;5070583;28;20478;-65
2021/01/18 01:02:01;;;;;;;1.10;1.07;;;2.60;98.00;;;;;;5072612;28;20474;-65
2021/01/18 01:04:28;;;;;;;1.10;1.00;;;2.50;98.00;;;;;;5070175;28;20973;-65
2021/01/18 01:06:55;;;;;;;1.50;1.17;;;2.60;98.00;;;;;;5072735;28;20934;-66
2021/01/18 01:09:21;;;;;;;1.73;1.67;;;2.60;98.00;;;;;;5070640;28;20456;-65
2021/01/18 01:11:48;;;;;;;1.10;1.00;;;2.50;98.00;;;;;;5072073;28;20465;-66
2021/01/18 01:14:14;;;;;;;1.73;1.73;;;2.50;98.00;;;;;;5070473;28;20456;-65
2021/01/18 01:16:43;;;;;;;1.23;1.23;;;2.60;98.00;;;;;;5072793;28;20494;-66
2021/01/18 01:19:09;;;;;;;1.20;1.17;;;2.60;98.00;;;;;;5070133;28;20456;-67
2021/01/18 01:21:37;;;;;;;1.13;1.13;;;2.70;98.00;;;;;;5072690;28;20494;-66
2021/01/18 01:24:04;;;;;;;1.57;1.47;;;2.70;98.00;;;;;;5070725;28;20540;-66
2021/01/18 01:26:31;;;;;;;1.10;1.00;;;2.70;98.00;;;;;;5072406;28;20462;-65
2021/01/18 01:28:57;;;;;;;2.57;1.17;;;2.60;98.00;;;;;;5069824;28;20460;-66
2021/01/18 01:31:24;;;;;;;1.50;1.17;;;2.60;98.00;;;;;;5072356;28;20534;-66
2021/01/18 01:33:50;;;;;;;1.40;1.30;;;2.70;98.00;;;;;;5070365;28;20460;-65
2021/01/18 01:36:17;;;;;;;1.30;1.10;;;2.60;98.00;;;;;;5072165;28;20487;-65
2021/01/18 01:38:44;;;;;;;1.10;1.00;;;2.60;98.00;;;;;;5069817;28;20464;-67
2021/01/18 01:41:11;;;;;;;1.20;1.20;;;2.60;98.00;;;;;;5072125;28;20941;-65
2021/01/18 01:43:37;;;;;;;1.20;1.10;;;2.70;98.00;;;;;;5069886;28;20456;-66
2021/01/18 01:46:04;;;;;;;1.37;1.20;;;2.60;98.00;;;;;;5071964;28;20457;-64
2021/01/18 01:48:31;;;;;;;1.10;0.90;;;2.70;98.00;;;;;;5069482;28;20517;-67
2021/01/18 01:50:58;;;;;;;1.10;0.90;;;2.70;98.00;;;;;;5070686;28;20456;-66
2021/01/18 01:53:30;;;;;;;1.23;1.20;;;2.70;98.00;;;;;;5069871;28;20463;-66
2021/01/18 01:55:58;;;;;;;1.10;0.90;;;2.70;98.00;;;;;;5070468;28;20510;-65
2021/01/18 01:58:25;;;;;;;1.67;1.20;;;2.70;98.00;;;;;;5069421;28;21009;-65
2021/01/18 02:00:54;;;;;;;1.10;1.07;;;2.80;98.00;;;;;;5071632;28;20523;-66
2021/01/18 02:03:28;;;;;;;1.97;1.27;;;2.90;98.00;;;;;;5069420;28;20751;-66
2021/01/18 02:05:55;;;;;;;1.57;1.27;;;2.90;98.00;;;;;;5071915;28;20470;-65
2021/01/18 02:08:22;;;;;;;1.20;1.17;;;2.90;98.00;;;;;;5069618;28;20953;-66
2021/01/18 02:10:49;;;;;;;1.40;1.27;;;2.80;98.00;;;;;;5071880;28;20498;-66
2021/01/18 02:13:30;;;;;;;1.10;1.00;;;2.80;98.00;;;;;;5069754;28;20517;-67
2021/01/18 02:16:04;;;;;;;1.10;1.03;;;2.80;98.00;;;;;;5071777;28;20997;-65
2021/01/18 02:18:46;;;;;;;1.10;1.10;;;2.80;98.00;;;;;;5070042;28;20451;-64
2021/01/18 02:21:49;;;;;;;1.10;0.90;;;2.80;98.00;;;;;;5070643;28;20460;-65
2021/01/18 02:25:01;;;;;;;1.10;0.90;;;2.80;98.00;;;;;;5069658;28;20474;-65
2021/01/18 02:27:58;;;;;;;1.10;0.90;;;2.70;98.00;;;;;;5052450;28;20521;-65
2021/01/18 02:30:41;;;;;;;1.50;1.40;;;2.70;98.00;;;;;;5068963;28;20453;-65
2021/01/18 02:33:30;;;;;;;1.20;1.10;;;2.70;98.00;;;;;;5069493;28;20509;-65
2021/01/18 02:36:07;;;;;;;2.30;1.83;;;2.80;98.00;;;;;;5071412;28;20491;-67
2021/01/18 02:38:42;;;;;;;1.10;1.10;;;2.70;98.00;;;;;;5069278;28;20483;-64
2021/01/18 02:41:21;;;;;;;1.77;1.67;;;2.60;98.00;;;;;;5071399;28;20982;-65
2021/01/18 02:44:00;;;;;;;1.43;1.37;;;2.60;98.00;;;;;;5068946;28;20550;-67
2021/01/18 02:46:28;;;;;;;1.10;0.90;;;2.60;98.00;;;;;;5071266;28;20463;-66
2021/01/18 02:48:55;;;;;;;1.40;1.00;;;2.60;98.00;;;;;;5068894;28;20460;-66
2021/01/18 02:51:26;;;;;;;1.30;1.30;;;2.60;98.00;;;;;;5071062;28;20464;-66
2021/01/18 02:53:57;;;;;;;1.20;1.20;;;2.60;98.00;;;;;;5068846;28;20969;-65
2021/01/18 02:56:26;;;;;;;1.20;1.10;;;2.60;98.00;;;;;;5070819;28;20476;-65
2021/01/18 02:58:56;;;;;;;1.10;1.00;;;2.60;98.00;;;;;;5068591;28;20959;-65
2021/01/18 03:02:11;;;;;;;1.20;1.10;;;2.70;98.00;;;;;;5053634;28;20460;-66
2021/01/18 03:04:53;;;;;;;3.10;1.63;;;2.60;98.00;;;;;;5009180;28;20461;-66
2021/01/18 03:07:26;;;;;;;1.50;1.20;;;2.60;98.00;;;;;;5065259;28;20493;-67
2021/01/18 03:10:00;;;;;;;1.10;1.00;;;2.50;98.00;;;;;;5068990;28;20482;-65
2021/01/18 03:12:29;;;;;;;1.37;1.10;;;2.50;98.00;;;;;;5071404;28;20452;-66
2021/01/18 03:14:57;;;;;;;1.23;1.10;;;2.50;98.00;;;;;;5068659;28;20484;-66
2021/01/18 03:17:29;;;;;;;1.10;0.90;;;2.50;98.00;;;;;;5071146;28;20456;-65
2021/01/18 03:19:57;;;;;;;1.13;1.10;;;2.60;98.00;;;;;;5068463;28;20472;-65
2021/01/18 03:22:27;;;;;;;1.10;0.90;;;2.60;98.00;;;;;;5070262;28;20456;-68
2021/01/18 03:25:00;;;;;;;1.10;1.00;;;2.60;98.00;;;;;;5067809;28;20517;-66
2021/01/18 03:27:26;;;;;;;1.10;0.90;;;2.60;98.00;;;;;;5070811;28;20464;-66
2021/01/18 03:29:53;;;;;;;2.07;1.53;;;2.60;98.00;;;;;;5068740;28;20474;-65
2021/01/18 03:32:20;;;;;;;1.40;1.20;;;2.60;98.00;;;;;;5070915;28;20452;-65
2021/01/18 03:34:46;;;;;;;1.10;1.07;;;2.60;98.00;;;;;;5070198;28;20464;-65
2021/01/18 03:37:13;;;;;;;1.90;1.43;;;2.50;98.00;;;;;;5074708;28;20463;-66
2021/01/18 03:39:40;;;;;;;1.10;1.00;;;2.50;98.00;;;;;;5071803;28;20535;-65
2021/01/18 03:42:07;;;;;;;1.10;1.00;;;2.50;98.00;;;;;;5074332;28;20456;-64
2021/01/18 03:44:35;;;;;;;1.10;1.00;;;2.50;98.00;;;;;;5072290;28;20452;-65
2021/01/18 03:47:02;;;;;;;1.10;0.90;;;2.50;98.00;;;;;;5074255;28;20931;-65
2021/01/18 03:49:29;;;;;;;1.10;1.00;;;2.60;98.00;;;;;;5071930;28;20464;-65
2021/01/18 03:51:55;;;;;;;1.10;0.90;;;2.70;98.00;;;;;;5074254;28;20468;-66
2021/01/18 03:54:22;;;;;;;1.10;0.90;;;2.70;98.00;;;;;;5070641;28;20829;-66
2021/01/18 03:56:49;;;;;;;1.10;1.07;;;2.70;98.00;;;;;;5074186;28;20484;-65
2021/01/18 03:59:16;;;;;;;1.10;0.90;;;2.70;98.00;;;;;;5070167;28;20463;-65
2021/01/18 04:01:42;;;;;;;1.10;0.90;;;2.80;98.00;;;;;;5074251;28;20471;-65
2021/01/18 04:04:09;;;;;;;1.10;0.90;;;2.70;98.00;;;;;;5071753;28;20486;-66
2021/01/18 04:06:37;;;;;;;1.10;1.00;;;2.70;98.00;;;;;;5072890;28;20455;-65
2021/01/18 04:09:04;;;;;;;1.10;1.10;;;2.70;98.00;;;;;;5071739;28;20459;-64
2021/01/18 04:11:31;;;;;;;1.10;0.90;;;2.70;98.00;;;;;;5073975;28;20520;-65
2021/01/18 04:13:59;;;;;;;1.10;1.00;;;2.70;98.00;;;;;;5071761;28;20493;-66
2021/01/18 04:16:26;;;;;;;1.10;1.00;;;2.70;98.00;;;;;;5073906;28;20477;-66
2021/01/18 04:18:54;;;;;;;1.10;1.00;;;2.70;98.00;;;;;;5071745;28;20941;-66
2021/01/18 04:21:20;;;;;;;1.10;1.00;;;2.80;98.00;;;;;;5074161;28;20464;-67
2021/01/18 04:23:47;;;;;;;1.73;1.30;;;2.80;98.00;;;;;;5071831;28;20857;-64
2021/01/18 04:26:14;;;;;;;1.10;1.00;;;2.90;98.00;;;;;;5073861;28;20478;-65
2021/01/18 04:28:41;;;;;;;1.10;0.90;;;2.90;98.00;;;;;;5072185;28;20934;-66
2021/01/18 04:31:08;;;;;;;1.10;1.10;;;2.80;98.00;;;;;;5073645;28;20459;-65
2021/01/18 04:33:35;;;;;;;1.70;1.60;;;2.90;98.00;;;;;;5071706;28;20463;-65
2021/01/18 04:36:01;;;;;;;1.10;0.90;;;2.90;98.00;;;;;;5073567;28;20521;-65
2021/01/18 04:38:28;;;;;;;1.10;0.90;;;3.00;98.00;;;;;;5071206;28;20954;-65
2021/01/18 04:40:54;;;;;;;1.53;1.30;;;3.10;98.00;;;;;;5073437;28;20783;-66
2021/01/18 04:43:21;;;;;;;1.10;1.00;;;3.10;98.00;;;;;;5070313;28;20510;-66
2021/01/18 04:45:49;;;;;;;1.10;0.90;;;3.00;98.00;;;;;;5072317;28;20990;-64
2021/01/18 04:48:17;;;;;;;1.10;1.00;;;2.90;98.00;;;;;;5073564;28;20461;-65
2021/01/18 04:50:44;;;;;;;1.10;1.10;;;2.80;98.00;;;;;;5072475;28;20463;-65
2021/01/18 04:53:15;;;;;;;1.10;1.00;;;2.70;98.00;;;;;;5073249;28;20452;-64
2021/01/18 04:56:13;;;;;;;1.30;1.20;;;2.70;98.00;;;;;;5071143;28;20542;-66
2021/01/18 04:58:44;;;;;;;1.87;1.87;;;2.50;98.00;;;;;;5070626;28;20471;-66
2021/01/18 05:01:16;;;;;;;1.80;1.10;;;2.40;98.00;;;;;;5073000;28;20467;-64
2021/01/18 05:03:45;;;;;;;1.10;1.00;;;2.40;98.00;;;;;;5070947;28;20497;-66
2021/01/18 05:06:45;;;;;;;1.60;1.20;;;2.40;98.00;;;;;;5072866;28;20517;-65
2021/01/18 05:09:26;;;;;;;1.10;0.90;;;2.30;98.00;;;;;;5070516;28;20483;-66
2021/01/18 05:11:53;;;;;;;1.20;1.10;;;2.30;98.00;;;;;;5072648;28;20473;-65
2021/01/18 05:14:20;;;;;;;1.50;1.30;;;2.30;98.00;;;;;;5070959;28;21098;-64
2021/01/18 05:16:51;;;;;;;1.10;1.00;;;2.30;98.00;;;;;;5072667;28;20997;-66
2021/01/18 05:19:19;;;;;;;1.10;0.90;;;2.30;98.00;;;;;;5070426;28;20461;-66
2021/01/18 05:21:47;;;;;;;1.10;1.00;;;2.30;98.00;;;;;;5072714;28;20508;-65
2021/01/18 05:24:18;;;;;;;1.10;1.00;;;2.40;98.00;;;;;;5070072;28;20464;-66
2021/01/18 05:27:01;;;;;;;1.10;1.00;;;2.40;98.00;;;;;;5072628;28;20456;-66
2021/01/18 05:29:32;;;;;;;1.10;0.90;;;2.40;98.00;;;;;;5070324;28;20463;-65
2021/01/18 05:31:59;;;;;;;1.10;1.00;;;2.30;98.00;;;;;;5072347;28;20455;-66
2021/01/18 05:34:29;;;;;;;1.30;1.13;;;2.30;98.00;;;;;;5070245;28;20506;-65
2021/01/18 05:36:56;;;;;;;1.10;1.00;;;2.30;98.00;;;;;;5072499;28;20570;-65
2021/01/18 05:39:24;;;;;;;1.10;1.00;;;2.30;98.00;;;;;;5070084;28;20835;-65
2021/01/18 05:41:51;;;;;;;1.40;1.10;;;2.20;98.00;;;;;;5072263;28;20456;-65
2021/01/18 05:44:19;;;;;;;1.10;1.00;;;2.10;98.00;;;;;;5069963;28;20456;-65
2021/01/18 05:46:48;;;;;;;1.10;1.10;;;2.00;98.00;;;;;;5070690;28;20559;-66
2021/01/18 05:49:16;;;;;;;1.33;1.00;;;2.10;98.00;;;;;;5070172;28;20483;-65
2021/01/18 05:51:49;;;;;;;1.20;1.20;;;2.20;98.00;;;;;;5072047;28;20955;-65
2021/01/18 05:54:21;;;;;;;1.20;1.20;;;2.10;98.00;;;;;;5069709;28;20460;-67
2021/01/18 05:56:48;;;;;;;1.10;1.00;;;2.10;98.00;;;;;;5071611;28;20484;-64
2021/01/18 05:59:19;;;;;;;1.10;0.90;;;2.10;98.00;;;;;;5069541;28;20817;-67
2021/01/18 06:01:47;;;;;;;1.10;0.90;;;2.10;98.00;;;;;;5071853;28;20460;-66
2021/01/18 06:04:15;;;;;;;1.10;1.00;;;2.00;98.00;;;;;;5068410;28;20464;-65
2021/01/18 06:06:52;;;;;;;3.20;2.93;;;1.80;98.00;;;;;;5071791;28;20534;-67
2021/01/18 06:09:19;;;;;;;1.30;1.03;;;1.80;98.00;;;;;;5068272;28;20815;-64
2021/01/18 06:11:45;;;;;;;1.20;1.10;;;1.90;98.00;;;;;;5071696;28;20472;-66
2021/01/18 06:14:13;;;;;;;1.10;1.00;;;2.20;98.00;;;;;;5069142;28;20462;-65
2021/01/18 06:16:40;;;;;;;1.20;1.10;;;2.20;98.00;;;;;;5071638;28;21115;-66
2021/01/18 06:19:08;;;;;;;3.00;1.40;;;2.20;98.00;;;;;;5069160;28;20466;-66
2021/01/18 06:21:36;;;;;;;1.20;1.10;;;2.20;98.00;;;;;;5071762;28;20460;-65
2021/01/18 06:24:22;;;;;;;1.10;1.10;;;2.10;98.00;;;;;;5069488;28;20468;-65
2021/01/18 06:26:48;;;;;;;1.10;1.00;;;2.00;98.00;;;;;;5070478;28;20460;-66
2021/01/18 06:29:37;;;;;;;1.40;1.20;;;1.90;98.00;;;;;;5069268;28;20982;-65
2021/01/18 06:32:05;;;;;;;1.43;1.40;;;1.90;98.00;;;;;;5087314;28;20838;-67
2021/01/18 06:34:32;;;;;;;1.10;1.00;;;1.90;98.00;;;;;;5069676;28;20476;-67
2021/01/18 06:36:59;;;;;;;1.10;1.00;;;1.90;98.00;;;;;;5070537;28;20518;-65
2021/01/18 06:39:28;;;;;;;1.10;0.90;;;1.80;98.00;;;;;;5069013;28;20456;-67
2021/01/18 06:42:00;;;;;;;1.10;0.90;;;1.80;98.00;;;;;;5071589;28;20463;-65
2021/01/18 06:44:37;;;;;;;1.30;1.20;;;1.70;98.00;;;;;;5069258;28;20460;-65
2021/01/18 06:47:28;;;;;;;1.20;1.20;;;1.70;98.00;;;;;;5071471;28;20527;-65
2021/01/18 06:49:56;;;;;;;1.13;1.07;;;1.70;98.00;;;;;;5069227;28;20467;-65
2021/01/18 06:52:27;;;;;;;1.10;1.00;;;1.70;98.00;;;;;;5071197;28;20543;-65
2021/01/18 06:55:10;;;;;;;1.10;1.00;;;1.80;98.00;;;;;;5068910;28;20476;-68
2021/01/18 06:58:04;;;;;;;1.10;1.00;;;1.80;98.00;;;;;;5071046;28;20839;-67
2021/01/18 07:00:31;;;;;;;1.10;1.00;;;1.90;98.00;;;;;;5068458;28;20502;-66
2021/01/18 07:03:00;;;;;;;1.10;1.00;;;2.10;98.00;;;;;;5069944;28;20512;-66
2021/01/18 07:05:35;;;;;;;1.10;0.90;;;2.10;98.00;;;;;;5069002;28;20452;-65
2021/01/18 07:08:12;;;;;;;1.20;1.20;;;2.10;98.00;;;;;;5069959;28;20998;-67
2021/01/18 07:10:41;;;;;;;1.20;1.07;;;2.00;98.00;;;;;;5070738;28;20470;-67
2021/01/18 07:13:08;;;;;;;1.60;1.57;;;2.00;98.00;;;;;;5074965;28;20456;-65
2021/01/18 07:15:40;;;;;;;1.10;0.90;;;2.00;98.00;;;;;;5072595;28;20489;-66
2021/01/18 07:18:09;;;;;;;1.10;1.00;;;2.00;98.00;;;;;;5074876;28;20937;-65
2021/01/18 07:20:41;;;;;;;1.63;1.57;;;2.10;98.00;;;;;;5072478;28;20460;-66
2021/01/18 07:23:30;;;;;;;1.40;1.17;;;2.30;98.00;;;;;;5074868;28;20486;-65
2021/01/18 07:26:46;;;;;;;1.33;1.27;;;2.40;98.00;;;;;;5069894;28;20461;-65
2021/01/18 07:29:15;;;;;;;1.50;1.40;;;2.50;98.00;;;;;;5072646;28;20451;-65
2021/01/18 07:31:45;;;;;;;1.17;1.10;;;2.60;98.00;;;;;;5074993;28;20502;-66
2021/01/18 07:34:16;;;;;;;1.10;1.00;;;2.60;98.00;;;;;;5072645;28;20456;-66
2021/01/18 07:36:44;;;;;;;1.30;1.20;;;2.60;98.00;;;;;;5074608;28;20483;-66
2021/01/18 07:39:32;;;;;;;1.20;1.03;;;2.60;98.00;;;;;;5072680;28;20487;-66
2021/01/18 07:41:59;;;;;;;1.10;1.00;;;2.60;98.00;;;;;;5074173;28;20468;-65
2021/01/18 07:44:35;;;;;;;1.10;1.00;;;2.70;98.00;;;;;;5072022;28;20461;-65
2021/01/18 07:47:04;;;;;;;1.40;1.30;;;2.80;98.00;;;;;;5074494;28;20456;-66
2021/01/18 07:49:38;;;;;;;1.20;1.20;;;2.80;98.00;;;;;;5072121;28;20460;-65
2021/01/18 07:52:23;;;;;;;2.23;1.77;;;2.80;98.00;;;;;;5073192;28;20463;-65
2021/01/18 07:54:50;;;;;;;1.20;1.03;;;2.70;98.00;;;;;;5071409;28;20971;-66
2021/01/18 07:57:24;;;;;;;1.10;1.00;;;2.70;98.00;;;;;;5073985;28;21216;-66
2021/01/18 08:00:19;;;;;;;1.10;1.00;;;2.60;98.00;;;;;;5071781;28;20946;-67
2021/01/18 08:02:49;;;;;;;1.10;1.10;;;2.60;98.00;;;;;;5073994;28;20467;-66
2021/01/18 08:05:26;;;;;;;1.50;1.23;;;2.70;98.00;;;;;;5071265;28;21043;-66
2021/01/18 08:08:04;;;;;;;2.17;1.30;;;2.70;98.00;;;;;;5073987;28;20471;-65
2021/01/18 08:10:54;;;;;;;1.20;1.10;;;2.70;98.00;;;;;;5070342;28;20942;-65
2021/01/18 08:13:51;;;;;;;1.10;0.90;;;2.60;98.00;;;;;;5073860;28;20460;-67
2021/01/18 08:16:20;;;;;;;1.10;0.90;;;2.60;98.00;;;;;;5073699;28;20515;-65
2021/01/18 08:18:59;;;;;;;1.10;1.00;;;2.60;98.00;;;;;;5071662;28;20452;-66
2021/01/18 08:21:46;;;;;;;1.10;0.90;;;2.60;98.00;;;;;;5073849;28;20456;-66
2021/01/18 08:24:15;;;;;;;1.47;1.30;;;2.60;98.00;;;;;;5071663;28;20498;-66
2021/01/18 08:26:54;;;;;;;1.10;1.00;;;2.60;98.00;;;;;;5073925;28;20540;-66
2021/01/18 08:29:40;;;;;;;1.10;0.90;;;2.60;98.00;;;;;;5072153;28;20844;-67
2021/01/18 08:32:36;;;;;;;2.07;1.43;;;2.60;98.00;;;;;;5073744;28;20512;-65
2021/01/18 08:35:06;;;;;;;6.27;2.30;;;2.70;98.00;;;;;;5071051;28;20492;-66
2021/01/18 08:37:34;;;;;;;1.20;1.20;;;2.70;98.00;;;;;;5073671;28;20515;-66
2021/01/18 08:40:02;;;;;;;1.10;1.00;;;2.70;98.00;;;;;;5069442;28;20491;-67
2021/01/18 08:42:31;;;;;;;1.50;1.10;;;2.70;98.00;;;;;;5073577;28;20453;-66
2021/01/18 08:44:59;;;;;;;1.10;1.00;;;2.70;98.00;;;;;;5071230;28;20464;-66
2021/01/18 08:47:37;;;;;;;1.10;0.97;;;2.70;98.00;;;;;;5073156;28;20467;-67
2021/01/18 08:50:25;;;;;;;1.63;1.37;;;2.80;98.00;;;;;;5070038;28;20460;-65
2021/01/18 08:52:53;;;;;;;2.13;1.60;;;2.70;98.00;;;;;;5072595;28;20463;-66
2021/01/18 08:55:54;;;;;;;1.20;1.10;;;2.70;98.00;;;;;;5070382;28;20870;-66
2021/01/18 08:58:42;;;;;;;1.20;1.10;;;2.80;98.00;;;;;;5072824;28;20455;-67
2021/01/18 09:01:11;;;;;;;1.10;0.90;;;2.80;98.00;;;;;;5069729;28;20464;-67
2021/01/18 09:03:40;;;;;;;1.10;1.00;;;2.80;98.00;;;;;;5072263;28;20459;-66
2021/01/18 09:06:07;;;;;;;1.10;0.90;;;2.80;98.00;;;;;;5069971;28;20459;-66
2021/01/18 09:08:34;;;;;;;1.10;1.00;;;2.80;98.00;;;;;;5071063;28;20873;-68
2021/01/18 09:11:01;;;;;;;1.10;1.00;;;2.80;98.00;;;;;;5069686;28;20461;-68
2021/01/18 09:13:30;;;;;;;1.10;1.00;;;2.80;98.00;;;;;;5072044;28;20456;-67
2021/01/18 09:15:58;;;;;;;1.57;1.30;;;2.90;98.00;;;;;;5068957;28;20487;-68
2021/01/18 09:18:26;;;;;;;1.10;0.90;;;2.90;98.00;;;;;;5072120;28;20452;-68
2021/01/18 09:20:55;;;;;;;2.30;1.10;;;2.90;98.00;;;;;;5069484;28;20488;-69
2021/01/18 09:23:22;;;;;;;1.20;1.10;;;3.00;98.00;;;;;;5072219;28;20464;-68
2021/01/18 09:25:58;;;;;;;1.10;1.00;;;3.00;98.00;;;;;;5069653;28;20456;-67
2021/01/18 09:28:25;;;;;;;1.10;0.97;;;3.00;98.00;;;;;;5072223;28;20475;-68
2021/01/18 09:30:51;;;;;;;1.20;1.00;;;3.20;98.00;;;;;;5069621;28;20462;-65
2021/01/18 09:33:18;;;;;;;1.10;1.00;;;3.20;98.00;;;;;;5071126;28;20467;-64
2021/01/18 09:35:46;;;;;;;1.10;0.90;;;3.20;98.00;;;;;;5068762;28;20518;-65
2021/01/18 09:38:14;;;;;;;1.10;0.90;;;3.30;98.00;;;;;;5071795;28;20464;-65
2021/01/18 09:40:43;;;;;;;1.10;1.03;;;3.30;98.00;;;;;;5069637;28;20463;-65
2021/01/18 09:43:11;;;;;;;1.10;0.90;;;3.30;98.00;;;;;;5071814;28;21080;-66
2021/01/18 09:45:38;;;;;;;1.10;1.10;;;3.30;98.00;;;;;;5068701;28;20445;-68
2021/01/18 09:48:07;;;;;;;1.30;1.20;;;3.40;98.00;;;;;;5071710;28;20797;-67
2021/01/18 09:50:36;;;;;;;1.10;0.90;;;3.40;98.00;;;;;;5069060;28;21007;-68
2021/01/18 09:53:06;;;;;;;1.10;0.90;;;3.50;98.00;;;;;;5071608;28;20449;-68
2021/01/18 09:55:36;;;;;;;1.10;1.00;;;3.60;98.00;;;;;;5068578;28;21047;-67
2021/01/18 09:58:09;;;;;;;1.10;0.97;;;3.60;98.00;;;;;;5070324;28;20467;-67
2021/01/18 10:00:37;;;;;;;1.50;1.10;;;3.60;98.00;;;;;;5068419;28;20471;-67
2021/01/18 10:03:05;;;;;;;1.20;1.10;;;3.70;98.00;;;;;;5070554;28;21159;-68
2021/01/18 10:05:35;;;;;;;1.10;0.93;;;3.60;98.00;;;;;;5068000;28;20499;-68
2021/01/18 10:08:11;;;;;;;1.60;1.30;;;3.60;98.00;;;;;;5070493;28;20456;-67
2021/01/18 10:10:45;;;;;;;1.10;1.00;;;3.60;98.00;;;;;;5068520;28;20459;-67
2021/01/18 10:13:16;;;;;;;1.20;1.10;;;3.50;98.00;;;;;;5070218;28;20456;-68
2021/01/18 10:15:43;;;;;;;1.10;0.90;;;3.50;98.00;;;;;;5067940;28;21137;-66
2021/01/18 10:18:27;;;;;;;2.70;1.97;;;3.40;98.00;;;;;;5070415;28;20461;-66
2021/01/18 10:20:54;;;;;;;1.63;1.47;;;3.50;98.00;;;;;;5068433;28;20467;-66
2021/01/18 10:23:21;;;;;;;1.10;1.00;;;3.50;98.00;;;;;;5069281;28;20515;-68
2021/01/18 10:25:49;;;;;;;1.10;1.00;;;3.70;98.00;;;;;;5067941;28;20788;-68
2021/01/18 10:28:18;;;;;;;1.30;1.10;;;3.90;98.00;;;;;;5070227;28;20479;-69
2021/01/18 10:30:44;;;;;;;1.10;1.00;;;4.00;98.00;;;;;;5067968;28;20927;-67
2021/01/18 10:33:16;;;;;;;1.30;1.10;;;4.10;98.00;;;;;;5070093;28;20492;-67
2021/01/18 10:35:43;;;;;;;1.10;0.90;;;4.20;98.00;;;;;;5068028;28;20476;-68
2021/01/18 10:38:18;;;;;;;1.10;1.00;;;4.10;98.00;;;;;;5070137;28;20824;-67
2021/01/18 10:41:01;;;;;;;1.10;0.90;;;4.10;98.00;;;;;;5067661;28;20475;-68
2021/01/18 10:43:29;;;;;;;1.17;1.00;;;4.10;98.00;;;;;;5068932;28;20457;-68
2021/01/18 10:45:56;;;;;;;1.20;1.00;;;4.00;98.00;;;;;;5067409;28;20994;-68
2021/01/18 10:48:30;;;;;;;1.40;1.37;;;3.90;98.00;;;;;;5069870;28;20846;-67
2021/01/18 10:50:58;;;;;;;1.20;1.00;;;3.80;98.00;;;;;;5067394;28;20464;-67
2021/01/18 10:53:29;;;;;;;1.20;1.00;;;3.80;98.00;;;;;;5069944;28;20463;-67
2021/01/18 10:56:23;;;;;;;1.10;0.90;;;3.80;98.00;;;;;;5067602;28;20511;-67
2021/01/18 10:58:56;;;;;;;1.10;1.00;;;3.90;98.00;;;;;;5047025;28;655137;-67
2021/01/18 11:01:24;;;;;;;1.10;0.90;;;3.90;98.00;;;;;;5070264;28;20449;-66
2021/01/18 11:03:51;;;;;;;1.13;1.00;;;3.90;98.00;;;;;;5070453;28;20465;-68
2021/01/18 11:06:19;;;;;;;1.50;1.17;;;4.00;98.00;;;;;;5068376;28;20478;-69
2021/01/18 11:08:51;;;;;;;1.10;1.00;;;4.10;98.00;;;;;;5070626;28;20457;-66
2021/01/18 11:11:19;;;;;;;1.10;0.90;;;4.10;98.00;;;;;;5068332;28;20824;-67
2021/01/18 11:14:01;;;;;;;1.20;1.10;;;4.00;98.00;;;;;;5070553;28;20518;-66
2021/01/18 11:16:27;;;;;;;1.20;1.00;;;4.00;98.00;;;;;;5070695;28;20484;-67
2021/01/18 11:19:00;;;;;;;1.10;1.00;;;4.10;98.00;;;;;;5070893;28;20460;-68
2021/01/18 11:21:28;;;;;;;1.10;1.00;;;4.20;98.00;;;;;;5070320;28;20481;-69
2021/01/18 11:23:54;;;;;;;1.10;1.00;;;4.20;98.00;;;;;;5070521;28;20471;-67
2021/01/18 11:26:22;;;;;;;1.40;1.13;;;4.20;98.00;;;;;;5068374;28;20789;-67
2021/01/18 11:28:50;;;;;;;1.20;1.00;;;4.20;98.00;;;;;;5070947;28;20459;-67
2021/01/18 11:31:17;;;;;;;1.20;1.00;;;4.10;98.00;;;;;;5068445;28;20468;-68
2021/01/18 11:33:44;;;;;;;1.20;1.20;;;4.10;98.00;;;;;;5070481;28;20941;-68
2021/01/18 11:36:11;;;;;;;1.10;0.90;;;4.10;98.00;;;;;;5067994;28;20483;-68
2021/01/18 11:38:38;;;;;;;1.13;1.00;;;4.10;98.00;;;;;;5070808;28;20459;-67
2021/01/18 11:41:05;;;;;;;1.10;0.90;;;4.10;98.00;;;;;;5068576;28;20488;-67
2021/01/18 11:43:33;;;;;;;1.10;0.90;;;4.00;98.00;;;;;;5070526;28;20457;-67
2021/01/18 11:46:00;;;;;;;2.30;1.67;;;4.10;98.00;;;;;;5068179;28;20460;-68
2021/01/18 11:48:26;;;;;;;1.37;1.33;;;4.00;98.00;;;;;;5070375;28;20460;-68
2021/01/18 11:50:53;;;;;;;1.20;1.17;;;4.10;98.00;;;;;;5068517;28;20464;-68
2021/01/18 11:53:19;;;;;;;1.30;1.20;;;4.20;98.00;;;;;;5070251;28;20472;-68
2021/01/18 11:55:47;;;;;;;1.10;1.00;;;4.30;98.00;;;;;;5069594;28;20477;-68
2021/01/18 11:58:14;;;;;;;1.20;1.00;;;4.30;98.00;;;;;;5073851;28;20460;-68
2021/01/18 12:00:42;;;;;;;1.10;1.00;;;4.30;98.00;;;;;;5071584;28;20503;-67
2021/01/18 12:03:09;;;;;;;1.10;1.00;;;4.30;98.00;;;;;;5073996;28;20954;-68
2021/01/18 12:05:35;;;;;;;1.20;1.00;;;4.30;98.00;;;;;;5071259;28;20967;-67
2021/01/18 12:08:03;;;;;;;1.40;1.20;;;4.40;98.00;;;;;;5073673;28;20463;-69
2021/01/18 12:10:31;;;;;;;1.10;1.00;;;4.30;98.00;;;;;;5071382;28;20457;-68
2021/01/18 12:12:57;;;;;;;1.10;1.10;;;5.10;98.00;;;;;;5073699;28;20464;-69
2021/01/18 12:15:24;;;;;;;1.10;0.90;;;5.90;98.00;;;;;;5070722;28;20484;-66
2021/01/18 12:17:51;;;;;;;1.20;1.10;;;7.00;98.00;;;;;;5073535;28;20478;-66
2021/01/18 12:20:19;;;;;;;1.30;1.10;;;7.80;98.00;;;;;;5071194;28;20463;-66
2021/01/18 12:22:52;;;;;;;1.20;1.00;;;8.40;98.00;;;;;;5073387;28;20460;-66
2021/01/18 12:25:19;;;;;;;1.67;1.20;;;8.90;98.00;;;;;;5070914;28;20463;-68
2021/01/18 12:27:49;;;;;;;1.20;1.00;;;8.50;98.00;;;;;;5073332;28;20452;-68
2021/01/18 12:30:16;;;;;;;1.30;1.10;;;7.90;98.00;;;;;;5070018;28;20456;-69
2021/01/18 12:32:43;;;;;;;1.93;1.33;;;7.40;98.00;;;;;;5073250;28;20461;-70
2021/01/18 12:35:12;;;;;;;1.30;1.30;;;6.90;98.00;;;;;;5070680;28;20464;-69
2021/01/18 12:37:38;;;;;;;1.20;1.00;;;6.50;98.00;;;;;;5073084;28;20482;-69
2021/01/18 12:40:06;;;;;;;1.20;1.00;;;6.20;98.00;;;;;;5070375;28;20462;-69
2021/01/18 12:42:34;;;;;;;2.07;1.87;;;5.80;98.00;;;;;;5072983;28;20516;-69
2021/01/18 12:45:01;;;;;;;1.20;0.90;;;5.60;98.00;;;;;;5070267;28;20458;-69
2021/01/18 12:47:27;;;;;;;1.20;1.00;;;5.40;98.00;;;;;;5072896;28;20950;-68
2021/01/18 12:49:56;;;;;;;1.20;1.00;;;5.20;98.00;;;;;;5070329;28;20487;-68
2021/01/18 12:52:23;;;;;;;1.20;1.00;;;5.20;98.00;;;;;;5072650;28;20496;-68
2021/01/18 12:54:51;;;;;;;1.20;1.00;;;5.20;98.00;;;;;;5070173;28;20918;-68
2021/01/18 12:57:17;;;;;;;1.67;1.50;;;5.10;98.00;;;;;;5071234;28;20492;-68
2021/01/18 12:59:44;;;;;;;1.50;1.10;;;5.00;98.00;;;;;;5070209;28;20474;-69
2021/01/18 13:02:12;;;;;;;1.20;0.90;;;4.90;98.00;;;;;;5072702;28;20458;-68
2021/01/18 13:04:44;;;;;;;2.00;1.40;;;5.00;98.00;;;;;;5069895;28;20503;-67
2021/01/18 13:07:10;;;;;;;1.20;1.03;;;5.10;98.00;;;;;;5071652;28;20460;-67
2021/01/18 13:09:38;;;;;;;1.20;1.10;;;4.90;98.00;;;;;;5070256;28;20935;-67
2021/01/18 13:12:05;;;;;;;1.20;0.90;;;4.70;98.00;;;;;;5072515;28;20460;-68
2021/01/18 13:14:31;;;;;;;1.20;1.10;;;4.70;98.00;;;;;;5069786;28;20503;-67
2021/01/18 13:17:00;;;;;;;1.20;0.90;;;4.60;98.00;;;;;;5072472;28;20494;-68